Time;durP1;ratioP1;P1;durP2;ratioP2;P2;SDS_P1;SDS_P2;PMS_P1;PMS_P2;Temp;Humidity;BMP_temperature;BMP_pressure;BME280_temperature;BME280_humidity;BME280_pressure;Samples;Min_cycle;Max_cycle;Signal;HPM_P1;HPM_P2
2022/06/02 00:01:08;;;;;;;11.93;10.27;;;9.30;99.90;;;;;;4968504;28;20043;-33
2022/06/02 00:03:36;;;;;;;12.30;9.82;;;9.30;99.90;;;;;;4967712;28;20097;-33
2022/06/02 00:06:21;;;;;;;12.13;9.97;;;9.20;99.90;;;;;;4955725;28;20054;-33
2022/06/02 00:09:03;;;;;;;14.80;10.77;;;9.20;99.90;;;;;;4961307;28;20491;-33
2022/06/02 00:11:54;;;;;;;12.23;10.17;;;9.30;99.90;;;;;;4968599;28;20035;-33
2022/06/02 00:14:42;;;;;;;14.23;10.77;;;9.20;99.90;;;;;;4954811;28;20462;-33
2022/06/02 00:17:22;;;;;;;14.90;9.97;;;9.20;99.90;;;;;;4940249;28;20042;-33
2022/06/02 00:20:08;;;;;;;11.57;9.77;;;9.20;99.90;;;;;;4958902;28;20043;-33
2022/06/02 00:23:06;;;;;;;10.87;9.60;;;9.20;99.90;;;;;;4959505;28;20507;-33
2022/06/02 00:25:37;;;;;;;12.03;9.90;;;9.10;99.90;;;;;;4952666;28;20097;-33
2022/06/02 00:28:03;;;;;;;13.23;10.43;;;9.00;99.90;;;;;;4944635;28;20050;-33
2022/06/02 00:30:43;;;;;;;14.57;10.17;;;9.00;99.90;;;;;;4955368;28;20057;-33
2022/06/02 00:33:44;;;;;;;10.37;9.20;;;9.00;99.90;;;;;;4954253;28;20534;-33
2022/06/02 00:36:27;;;;;;;10.87;9.27;;;9.00;99.90;;;;;;4962673;28;20053;-33
2022/06/02 00:38:55;;;;;;;12.13;10.23;;;9.00;99.90;;;;;;4960823;28;20130;-33
2022/06/02 00:41:55;;;;;;;12.10;9.60;;;9.00;99.90;;;;;;4960650;28;20647;-33
2022/06/02 00:44:51;;;;;;;12.47;9.70;;;9.00;99.90;;;;;;4962335;28;20509;-33
2022/06/02 00:47:29;;;;;;;10.93;9.23;;;8.90;99.90;;;;;;4943882;28;20051;-33
2022/06/02 00:50:05;;;;;;;11.97;9.43;;;8.90;99.90;;;;;;4952522;28;20525;-33
2022/06/02 00:52:39;;;;;;;11.07;8.80;;;8.90;99.90;;;;;;4963833;28;20053;-33
2022/06/02 00:58:27;;;;;;;10.83;9.03;;;8.90;99.90;;;;;;4938047;28;20130;-33
2022/06/02 01:01:07;;;;;;;13.57;9.17;;;8.80;99.90;;;;;;4953947;28;20055;-33
2022/06/02 01:03:40;;;;;;;14.30;9.33;;;8.80;99.90;;;;;;4958380;28;20351;-33
2022/06/02 01:06:23;;;;;;;13.83;9.77;;;8.80;99.90;;;;;;4966781;28;20141;-33
2022/06/02 01:09:01;;;;;;;11.63;9.20;;;8.80;99.90;;;;;;4963678;28;20042;-33
2022/06/02 01:11:46;;;;;;;11.80;9.80;;;8.70;99.90;;;;;;4959190;28;20055;-33
2022/06/02 01:14:44;;;;;;;11.50;9.70;;;8.70;99.90;;;;;;4963730;28;20043;-33
2022/06/02 01:17:24;;;;;;;12.80;9.17;;;8.70;99.90;;;;;;4937278;28;20047;-33
2022/06/02 01:20:07;;;;;;;13.70;8.87;;;8.70;99.90;;;;;;4958111;28;20055;-33
2022/06/02 01:23:00;;;;;;;11.13;9.00;;;8.70;99.90;;;;;;4967059;28;20055;-33
2022/06/02 01:25:49;;;;;;;13.40;9.67;;;8.60;99.90;;;;;;4954913;28;20403;-33
2022/06/02 01:28:49;;;;;;;11.50;9.03;;;8.60;99.90;;;;;;4938387;28;20050;-33
2022/06/02 01:31:35;;;;;;;11.60;9.43;;;8.60;99.90;;;;;;4965435;28;20078;-33
2022/06/02 01:34:20;;;;;;;12.10;9.17;;;8.60;99.90;;;;;;4952989;28;20043;-37
2022/06/02 01:37:01;;;;;;;13.00;9.23;;;8.50;99.90;;;;;;4949471;28;20051;-33
2022/06/02 01:39:29;;;;;;;14.60;9.45;;;8.50;99.90;;;;;;4966819;28;20521;-33
2022/06/02 01:42:01;;;;;;;10.60;8.67;;;8.50;99.90;;;;;;4962194;28;20049;-33
2022/06/02 01:44:45;;;;;;;13.23;9.07;;;8.50;99.90;;;;;;4967433;28;20074;-33
2022/06/02 01:47:31;;;;;;;10.13;8.57;;;8.50;99.90;;;;;;4915695;28;20047;-33
2022/06/02 01:50:25;;;;;;;15.03;9.53;;;8.40;99.90;;;;;;4962824;28;20054;-33
2022/06/02 01:52:58;;;;;;;9.93;8.83;;;8.50;99.90;;;;;;4965437;28;20055;-33
2022/06/02 01:55:53;;;;;;;10.80;8.60;;;8.40;99.90;;;;;;4954394;28;20054;-33
2022/06/02 01:58:26;;;;;;;11.27;9.17;;;8.40;99.90;;;;;;4938106;28;20055;-33
2022/06/02 02:01:19;;;;;;;9.67;8.30;;;8.40;99.90;;;;;;4967170;28;20035;-33
2022/06/02 02:04:03;;;;;;;10.80;9.00;;;8.40;99.90;;;;;;4961148;28;20126;-32
2022/06/02 02:06:56;;;;;;;12.57;8.67;;;8.30;99.90;;;;;;4953061;28;20620;-33
2022/06/02 02:09:28;;;;;;;10.43;8.47;;;8.30;99.90;;;;;;4965390;28;20043;-33
2022/06/02 02:11:56;;;;;;;11.07;8.30;;;8.30;99.90;;;;;;4958460;28;20463;-33
2022/06/02 02:14:38;;;;;;;11.83;9.10;;;8.20;99.90;;;;;;4968077;28;20054;-33
2022/06/02 02:17:03;;;;;;;13.77;8.87;;;8.30;99.90;;;;;;4954031;28;20043;-38
2022/06/02 02:20:00;;;;;;;11.23;8.70;;;8.30;99.90;;;;;;4958132;28;20050;-33
2022/06/02 02:22:50;;;;;;;12.77;9.50;;;8.30;99.90;;;;;;4957535;28;20467;-33
2022/06/02 02:25:28;;;;;;;13.70;10.57;;;8.30;99.90;;;;;;4969088;28;20511;-33
2022/06/02 02:28:16;;;;;;;11.97;9.80;;;8.30;99.90;;;;;;4954428;28;20756;-33
2022/06/02 02:30:50;;;;;;;13.63;10.10;;;8.20;99.90;;;;;;4958530;28;20053;-33
2022/06/02 02:33:30;;;;;;;12.63;10.13;;;8.30;99.90;;;;;;4969682;28;20484;-33
2022/06/02 02:36:14;;;;;;;10.90;8.80;;;8.20;99.90;;;;;;4963929;28;20466;-33
2022/06/02 02:38:45;;;;;;;12.17;9.80;;;8.30;99.90;;;;;;4949206;28;20158;-33
2022/06/02 02:41:28;;;;;;;12.90;10.03;;;8.20;99.90;;;;;;4968432;28;20039;-33
2022/06/02 02:44:13;;;;;;;11.87;9.97;;;8.30;99.90;;;;;;4956917;28;20042;-33
2022/06/02 02:46:59;;;;;;;10.57;9.00;;;8.20;99.90;;;;;;4944493;28;20055;-33
2022/06/02 02:49:34;;;;;;;11.53;9.13;;;8.20;99.90;;;;;;4969365;28;20050;-33
2022/06/02 02:52:37;;;;;;;12.97;9.93;;;8.20;99.90;;;;;;4957597;28;20134;-33
2022/06/02 02:55:26;;;;;;;10.57;8.53;;;8.20;99.90;;;;;;4963502;28;20051;-33
2022/06/02 02:58:18;;;;;;;12.93;9.33;;;8.30;99.90;;;;;;4938457;28;20226;-33
2022/06/02 03:00:59;;;;;;;11.97;8.80;;;8.30;99.90;;;;;;4968651;28;20046;-33
2022/06/02 03:03:36;;;;;;;11.10;8.30;;;8.30;99.90;;;;;;4963673;28;20113;-33
2022/06/02 03:06:26;;;;;;;10.97;8.23;;;8.30;99.90;;;;;;4964394;28;20043;-33
2022/06/02 03:09:30;;;;;;;12.50;8.97;;;8.30;99.90;;;;;;4966007;28;20051;-32
2022/06/02 03:12:09;;;;;;;12.20;8.60;;;8.30;99.90;;;;;;4959151;28;20043;-33
2022/06/02 03:14:39;;;;;;;10.77;8.23;;;8.30;99.90;;;;;;4963122;28;20046;-33
2022/06/02 03:17:17;;;;;;;12.07;8.60;;;8.30;99.90;;;;;;4950453;28;20059;-33
2022/06/02 03:20:02;;;;;;;12.77;8.47;;;8.30;99.90;;;;;;4960356;28;20084;-33
2022/06/02 03:22:59;;;;;;;12.90;7.70;;;8.30;99.90;;;;;;4955417;28;20053;-33
2022/06/02 03:25:35;;;;;;;10.83;7.97;;;8.30;99.90;;;;;;4969642;28;20643;-33
2022/06/02 03:28:19;;;;;;;10.93;8.23;;;8.30;99.90;;;;;;4942872;28;20150;-33
2022/06/02 03:30:54;;;;;;;13.23;7.90;;;8.30;99.90;;;;;;4961013;28;20553;-33
2022/06/02 03:33:41;;;;;;;11.30;8.07;;;8.30;99.90;;;;;;4967164;28;20053;-33
2022/06/02 03:36:34;;;;;;;12.20;8.17;;;8.30;99.90;;;;;;4957680;28;20055;-33
2022/06/02 03:39:06;;;;;;;9.67;8.13;;;8.30;99.90;;;;;;4962069;28;20541;-33
2022/06/02 03:42:05;;;;;;;11.60;8.10;;;8.30;99.90;;;;;;4961195;28;20055;-33
2022/06/02 03:44:34;;;;;;;10.63;7.60;;;8.30;99.90;;;;;;4958222;28;20840;-33
2022/06/02 03:47:05;;;;;;;12.80;8.07;;;8.30;99.90;;;;;;4947827;28;20052;-33
2022/06/02 03:49:53;;;;;;;8.83;7.77;;;8.30;99.90;;;;;;4961509;28;20050;-33
2022/06/02 03:52:46;;;;;;;11.27;7.67;;;8.30;99.90;;;;;;4968605;28;20202;-33
2022/06/02 03:55:38;;;;;;;11.00;8.30;;;8.30;99.90;;;;;;4963152;28;20051;-33
2022/06/02 03:58:04;;;;;;;;;;;8.30;99.90;;;;;;4948793;28;20051;-32
2022/06/02 04:00:56;;;;;;;11.30;7.93;;;8.30;99.90;;;;;;4949346;28;20696;-33
2022/06/02 04:03:41;;;;;;;11.37;7.93;;;8.30;99.90;;;;;;4960675;28;20141;-33
2022/06/02 04:06:29;;;;;;;10.03;8.00;;;8.30;99.90;;;;;;4956708;28;20058;-33
2022/06/02 04:09:20;;;;;;;9.77;7.37;;;8.30;99.90;;;;;;4964382;28;20816;-33
2022/06/02 04:15:47;;;;;;;9.77;7.37;;;8.30;99.90;;;;;;4965331;28;20433;-33
2022/06/02 04:18:18;;;;;;;9.37;7.37;;;8.30;99.90;;;;;;4943115;28;20062;-33
2022/06/02 04:21:04;;;;;;;11.02;7.28;;;8.30;99.90;;;;;;4961949;28;20055;-33
2022/06/02 04:23:41;;;;;;;10.93;6.83;;;8.30;99.90;;;;;;4953860;28;20047;-33
2022/06/02 04:26:18;;;;;;;10.67;7.17;;;8.40;99.90;;;;;;4957657;28;20648;-33
2022/06/02 04:28:54;;;;;;;8.43;7.07;;;8.30;99.90;;;;;;4956174;28;20051;-33
2022/06/02 04:31:55;;;;;;;8.87;6.67;;;8.40;99.90;;;;;;4955792;28;20039;-33
2022/06/02 04:34:49;;;;;;;7.83;7.00;;;8.40;99.90;;;;;;4966556;28;20051;-33
2022/06/02 04:37:27;;;;;;;10.23;7.27;;;8.40;99.90;;;;;;4947801;28;20684;-33
2022/06/02 04:40:14;;;;;;;10.30;6.63;;;8.50;99.90;;;;;;4953449;28;20051;-33
2022/06/02 04:42:51;;;;;;;8.20;6.63;;;8.50;99.90;;;;;;4957905;28;20058;-33
2022/06/02 04:45:35;;;;;;;8.10;6.77;;;8.50;99.90;;;;;;4953585;28;20047;-33
2022/06/02 04:48:26;;;;;;;12.00;6.97;;;8.60;99.90;;;;;;4937652;28;20058;-33
2022/06/02 04:51:37;;;;;;;8.87;6.70;;;8.60;99.90;;;;;;4968405;28;20089;-33
2022/06/02 04:54:46;;;;;;;8.13;5.57;;;8.60;99.90;;;;;;4963162;28;20561;-33
2022/06/02 04:57:29;;;;;;;6.77;6.07;;;8.70;99.90;;;;;;4945603;28;20051;-33
2022/06/02 05:00:17;;;;;;;8.03;5.67;;;8.80;99.90;;;;;;4964417;28;20054;-33
2022/06/02 05:03:31;;;;;;;7.07;5.67;;;8.90;99.90;;;;;;4954377;28;20079;-33
2022/06/02 05:06:36;;;;;;;8.47;5.30;;;9.00;99.90;;;;;;4966148;28;20093;-33
2022/06/02 05:09:04;;;;;;;8.53;5.60;;;9.10;99.90;;;;;;4941928;29;20092;-33
2022/06/02 05:11:58;;;;;;;11.70;5.40;;;9.20;99.90;;;;;;4957696;28;20087;-33
2022/06/02 05:14:36;;;;;;;8.47;5.83;;;9.40;99.90;;;;;;4950521;28;20159;-33
2022/06/02 05:17:19;;;;;;;7.00;5.03;;;9.50;99.90;;;;;;4952386;28;20057;-33
2022/06/02 05:20:04;;;;;;;6.53;5.40;;;9.60;99.90;;;;;;4965150;28;20050;-33
2022/06/02 05:22:51;;;;;;;6.57;5.30;;;9.70;99.90;;;;;;4953589;28;20463;-33
2022/06/02 05:25:31;;;;;;;5.83;5.20;;;9.80;99.90;;;;;;4947462;28;20059;-33
2022/06/02 05:28:35;;;;;;;8.03;4.90;;;9.90;99.90;;;;;;4935359;28;20074;-33
2022/06/02 05:31:22;;;;;;;7.17;5.27;;;10.00;99.90;;;;;;4948464;28;20081;-33
2022/06/02 05:34:05;;;;;;;6.37;5.00;;;10.10;99.90;;;;;;4955093;28;20034;-33
2022/06/02 05:37:07;;;;;;;7.43;4.57;;;10.30;99.90;;;;;;4942108;28;20121;-33
2022/06/02 05:40:02;;;;;;;6.97;4.30;;;10.40;99.90;;;;;;4958108;28;20573;-33
2022/06/02 05:42:55;;;;;;;5.27;4.10;;;10.50;99.90;;;;;;4955079;28;20066;-33
2022/06/02 05:45:43;;;;;;;6.77;4.87;;;10.70;99.90;;;;;;4951765;28;20058;-34
2022/06/02 05:48:10;;;;;;;7.97;4.28;;;10.80;99.90;;;;;;4938791;28;20411;-33
2022/06/02 05:50:45;;;;;;;5.80;3.78;;;10.90;99.90;;;;;;4967554;28;20686;-33
2022/06/02 05:53:21;;;;;;;4.97;3.95;;;11.00;99.90;;;;;;4963533;28;20639;-33
2022/06/02 05:56:03;;;;;;;6.23;3.60;;;11.10;99.90;;;;;;4955855;28;20047;-33
2022/06/02 05:58:47;;;;;;;4.82;4.03;;;11.20;99.90;;;;;;4950181;28;20070;-34
2022/06/02 06:01:33;;;;;;;7.07;3.45;;;11.40;99.90;;;;;;4964017;28;20142;-34
2022/06/02 06:04:30;;;;;;;4.63;3.28;;;11.50;99.90;;;;;;4957888;28;20789;-33
2022/06/02 06:07:18;;;;;;;6.25;2.92;;;11.60;99.90;;;;;;4933155;28;20137;-34
2022/06/02 06:09:54;;;;;;;5.43;3.13;;;11.70;99.90;;;;;;4965939;28;20050;-34
2022/06/02 06:12:22;;;;;;;4.00;2.85;;;11.80;99.90;;;;;;4966441;28;20206;-34
2022/06/02 06:15:01;;;;;;;5.38;2.70;;;12.00;99.90;;;;;;4965662;28;20063;-33
2022/06/02 06:18:03;;;;;;;6.95;2.63;;;12.00;99.90;;;;;;4948017;28;20054;-34
2022/06/02 06:20:57;;;;;;;4.75;2.83;;;12.10;99.90;;;;;;4946119;28;20055;-33
2022/06/02 06:23:46;;;;;;;4.05;2.63;;;12.20;99.90;;;;;;4952411;28;20047;-34
2022/06/02 06:26:29;;;;;;;6.43;2.97;;;12.30;99.90;;;;;;4951954;28;20059;-34
2022/06/02 06:29:17;;;;;;;5.20;2.40;;;12.40;99.90;;;;;;4949623;28;20133;-34
2022/06/02 06:31:55;;;;;;;7.68;2.35;;;12.50;99.90;;;;;;4963591;28;20567;-34
2022/06/02 06:34:35;;;;;;;4.50;2.30;;;12.60;99.90;;;;;;4955130;28;20055;-34
2022/06/02 06:37:23;;;;;;;2.47;2.00;;;12.60;99.90;;;;;;4936878;28;20058;-34
2022/06/02 06:40:27;;;;;;;8.90;1.92;;;12.70;99.90;;;;;;4954436;28;20310;-34
2022/06/02 06:43:30;;;;;;;4.60;1.98;;;12.80;99.90;;;;;;4956401;28;20047;-34
2022/06/02 06:46:05;;;;;;;3.30;1.70;;;12.90;99.90;;;;;;4957542;28;20138;-34
2022/06/02 06:48:43;;;;;;;3.33;1.98;;;13.00;99.90;;;;;;4944009;28;20130;-34
2022/06/02 06:51:37;;;;;;;4.03;1.90;;;13.10;99.90;;;;;;4961746;28;20046;-34
2022/06/02 06:54:32;;;;;;;3.55;2.20;;;13.20;99.90;;;;;;4961854;28;20046;-34
2022/06/02 06:57:04;;;;;;;4.50;2.05;;;13.30;99.90;;;;;;4941796;28;20472;-34
2022/06/02 06:59:35;;;;;;;3.80;1.92;;;13.20;99.90;;;;;;4961704;28;20415;-34
2022/06/02 07:02:12;;;;;;;3.13;1.60;;;13.20;99.90;;;;;;4967294;28;20070;-34
2022/06/02 07:05:01;;;;;;;5.00;1.67;;;13.30;99.90;;;;;;4966189;28;20182;-34
2022/06/02 07:07:53;;;;;;;4.20;1.50;;;13.30;99.90;;;;;;4950505;28;20050;-35
2022/06/02 07:10:39;;;;;;;3.70;1.27;;;13.30;99.90;;;;;;4962557;28;20042;-34
2022/06/02 07:13:50;;;;;;;3.00;1.30;;;13.30;99.90;;;;;;4962773;28;20151;-34
2022/06/02 07:16:46;;;;;;;4.07;1.38;;;13.30;99.90;;;;;;4954403;28;20442;-34
2022/06/02 07:19:27;;;;;;;2.90;1.20;;;13.30;99.90;;;;;;4960603;28;20051;-34
2022/06/02 07:21:59;;;;;;;3.58;1.02;;;13.30;99.90;;;;;;4962374;28;20050;-34
2022/06/02 07:24:38;;;;;;;2.65;1.10;;;13.40;99.90;;;;;;4965783;28;20047;-34
2022/06/02 07:27:16;;;;;;;2.95;1.20;;;13.40;99.90;;;;;;4949729;28;20052;-35
2022/06/02 07:30:03;;;;;;;1.77;1.20;;;13.50;99.90;;;;;;4964851;28;20057;-34
2022/06/02 07:32:50;;;;;;;4.47;1.33;;;13.50;99.90;;;;;;4964475;28;20078;-34
2022/06/02 07:35:37;;;;;;;3.83;1.70;;;13.50;99.90;;;;;;4965973;28;20501;-34
2022/06/02 07:38:12;;;;;;;3.97;1.27;;;13.50;99.90;;;;;;4952131;28;20534;-34
2022/06/02 07:40:59;;;;;;;2.38;1.40;;;13.50;99.90;;;;;;4958393;28;20060;-34
2022/06/02 07:43:30;;;;;;;2.28;1.35;;;13.50;99.90;;;;;;4967435;28;20047;-34
2022/06/02 07:46:16;;;;;;;;;;;13.60;99.90;;;;;;4968260;28;20785;-34
2022/06/02 07:48:57;;;;;;;2.95;1.20;;;13.60;99.90;;;;;;4952439;28;19934;-34
2022/06/02 07:51:30;;;;;;;5.15;1.40;;;13.70;99.90;;;;;;4966270;28;20046;-34
2022/06/02 07:54:05;;;;;;;5.35;1.27;;;13.70;99.90;;;;;;4957754;28;20054;-34
2022/06/02 07:56:37;;;;;;;2.83;1.20;;;13.70;99.90;;;;;;4952115;28;20054;-34
2022/06/02 07:59:08;;;;;;;;;;;13.80;99.90;;;;;;4964675;28;20042;-34
2022/06/02 08:02:11;;;;;;;2.50;1.10;;;13.80;99.90;;;;;;4961909;28;19933;-34
2022/06/02 08:04:50;;;;;;;3.80;1.02;;;13.90;99.90;;;;;;4963685;28;20050;-34
2022/06/02 08:07:52;;;;;;;3.70;1.13;;;13.90;99.90;;;;;;4952080;28;20046;-34
2022/06/02 08:10:40;;;;;;;;;;;14.00;99.90;;;;;;4965661;28;20054;-34
2022/06/02 08:13:22;;;;;;;1.52;0.93;;;14.00;99.90;;;;;;4966270;28;20280;-34
2022/06/02 08:15:57;;;;;;;5.38;1.00;;;14.00;99.90;;;;;;4965060;28;20114;-34
2022/06/02 08:18:38;;;;;;;2.42;1.10;;;14.10;99.90;;;;;;4945775;28;20062;-34
2022/06/02 08:21:30;;;;;;;3.88;1.10;;;14.10;99.90;;;;;;4966391;28;20065;-34
2022/06/02 08:24:14;;;;;;;3.00;0.90;;;14.10;99.90;;;;;;4966540;28;20055;-34
2022/06/02 08:27:05;;;;;;;3.38;0.85;;;14.10;99.90;;;;;;4949153;28;20046;-35
2022/06/02 08:29:53;;;;;;;4.20;1.20;;;14.20;99.90;;;;;;4961445;28;20429;-34
2022/06/02 08:32:25;;;;;;;2.63;0.95;;;14.20;99.90;;;;;;4967068;28;20049;-35
2022/06/02 08:35:08;;;;;;;3.28;1.00;;;14.30;99.90;;;;;;4962749;28;20604;-34
2022/06/02 08:37:56;;;;;;;3.13;0.80;;;14.30;99.90;;;;;;4950935;28;20046;-35
2022/06/02 08:40:29;;;;;;;2.65;1.10;;;14.30;99.90;;;;;;4960468;28;20130;-34
2022/06/02 08:43:25;;;;;;;4.07;1.00;;;14.40;99.90;;;;;;4963895;28;20137;-34
2022/06/02 08:46:10;;;;;;;3.97;1.15;;;14.40;99.90;;;;;;4964569;28;20157;-34
2022/06/02 08:49:00;;;;;;;3.05;1.20;;;14.40;99.90;;;;;;4955182;28;20130;-34
2022/06/02 08:52:02;;;;;;;3.30;1.13;;;14.30;99.90;;;;;;4963592;28;20101;-34
2022/06/02 08:55:04;;;;;;;2.15;1.10;;;14.40;99.90;;;;;;4965031;28;20141;-34
2022/06/02 08:58:07;;;;;;;1.23;0.80;;;14.40;99.90;;;;;;4951720;28;20070;-35
2022/06/02 09:01:01;;;;;;;4.90;0.90;;;14.50;99.90;;;;;;4962917;28;20117;-34
2022/06/02 09:04:04;;;;;;;4.78;1.10;;;14.60;99.90;;;;;;4961550;28;20070;-34
2022/06/02 09:07:07;;;;;;;10.50;1.63;;;14.50;99.90;;;;;;4948797;28;20421;-34
2022/06/02 09:09:57;;;;;;;3.72;0.80;;;14.60;99.90;;;;;;4963367;28;20142;-34
2022/06/02 09:12:29;;;;;;;4.00;0.90;;;14.60;99.90;;;;;;4961869;28;20050;-34
2022/06/02 09:15:12;;;;;;;3.35;0.80;;;14.70;99.90;;;;;;4963855;28;20485;-34
2022/06/02 09:17:56;;;;;;;3.42;0.80;;;14.80;99.90;;;;;;4942040;28;20053;-35
2022/06/02 09:20:51;;;;;;;4.60;1.13;;;14.80;99.90;;;;;;4960648;28;20046;-34
2022/06/02 09:23:26;;;;;;;4.82;1.02;;;14.90;99.90;;;;;;4963004;28;20055;-35
2022/06/02 09:26:13;;;;;;;4.18;1.50;;;14.90;99.90;;;;;;4960979;28;20069;-34
2022/06/02 09:29:01;;;;;;;5.13;1.27;;;15.00;99.90;;;;;;4956344;28;20113;-34
2022/06/02 09:31:29;;;;;;;3.53;1.13;;;15.00;99.90;;;;;;4966550;28;20046;-34
2022/06/02 09:34:05;;;;;;;3.15;1.00;;;15.00;99.90;;;;;;4964381;28;20085;-35
2022/06/02 09:36:52;;;;;;;1.60;0.95;;;15.00;99.90;;;;;;4947460;28;20503;-34
2022/06/02 09:39:42;;;;;;;3.17;1.02;;;15.00;99.90;;;;;;4963061;28;20042;-34
2022/06/02 09:42:34;;;;;;;5.70;1.05;;;15.10;99.90;;;;;;4963952;28;20058;-35
2022/06/02 09:45:32;;;;;;;3.40;1.00;;;15.10;99.90;;;;;;4961198;28;20039;-34
2022/06/02 09:48:11;;;;;;;2.35;1.00;;;15.20;99.90;;;;;;4946807;28;20050;-35
2022/06/02 09:50:53;;;;;;;2.80;0.85;;;15.20;99.90;;;;;;4965439;28;20047;-34
2022/06/02 09:53:46;;;;;;;1.95;0.80;;;15.30;99.90;;;;;;4962813;28;20054;-34
2022/06/02 09:56:41;;;;;;;4.28;0.95;;;15.30;99.90;;;;;;4954871;28;20055;-35
2022/06/02 09:59:36;;;;;;;2.05;1.13;;;15.40;99.90;;;;;;4961703;28;20065;-35
2022/06/02 10:02:50;;;;;;;4.03;1.13;;;15.40;99.90;;;;;;4964043;28;20155;-34
2022/06/02 10:05:31;;;;;;;2.25;0.95;;;15.40;99.90;;;;;;4960052;28;20050;-34
2022/06/02 10:08:34;;;;;;;2.42;0.75;;;15.50;99.90;;;;;;4943718;28;20125;-35
2022/06/02 10:11:26;;;;;;;1.95;0.98;;;15.50;99.90;;;;;;4958440;28;20202;-34
2022/06/02 10:14:30;;;;;;;2.80;1.02;;;15.60;99.90;;;;;;4963078;28;20494;-34
2022/06/02 10:17:24;;;;;;;4.07;1.25;;;15.50;99.90;;;;;;4946650;28;20051;-35
2022/06/02 10:20:09;;;;;;;1.90;0.93;;;15.50;99.90;;;;;;4960890;28;20051;-35
2022/06/02 10:22:56;;;;;;;4.18;1.10;;;15.50;99.90;;;;;;4960716;28;20039;-35
2022/06/02 10:25:31;;;;;;;5.25;1.33;;;15.60;99.90;;;;;;4961356;28;20065;-34
2022/06/02 10:28:34;;;;;;;3.03;1.60;;;15.60;99.90;;;;;;4951667;28;20050;-35
2022/06/02 10:31:18;;;;;;;1.98;1.02;;;15.60;99.90;;;;;;4964691;28;20398;-35
2022/06/02 10:34:02;;;;;;;3.97;1.20;;;15.60;99.90;;;;;;4966358;28;20089;-35
2022/06/02 10:36:28;;;;;;;3.75;1.20;;;15.70;99.90;;;;;;4952851;28;20046;-35
2022/06/02 10:39:19;;;;;;;5.13;1.08;;;15.80;99.90;;;;;;4962889;28;20168;-34
2022/06/02 10:42:22;;;;;;;4.72;1.40;;;15.80;99.90;;;;;;4959440;28;20517;-35
2022/06/02 10:45:21;;;;;;;1.92;1.05;;;15.80;99.90;;;;;;4939880;28;20039;-35
2022/06/02 10:48:24;;;;;;;2.30;1.30;;;15.80;99.90;;;;;;4933451;28;20050;-35
2022/06/02 10:51:10;;;;;;;2.55;1.15;;;15.90;99.90;;;;;;4955195;28;20057;-34
2022/06/02 10:54:08;;;;;;;2.92;1.08;;;16.00;99.90;;;;;;4960772;28;20102;-35
2022/06/02 10:57:07;;;;;;;2.67;0.98;;;16.00;99.90;;;;;;4940408;28;20122;-35
2022/06/02 11:00:14;;;;;;;3.78;1.50;;;16.00;99.90;;;;;;4961350;28;20054;-35
2022/06/02 11:03:13;;;;;;;5.57;1.42;;;16.00;99.90;;;;;;4952356;28;20910;-35
2022/06/02 11:05:39;;;;;;;2.42;1.10;;;16.10;99.90;;;;;;4951097;28;20082;-35
2022/06/02 11:08:34;;;;;;;2.00;1.20;;;16.10;99.90;;;;;;4931152;28;20051;-35
2022/06/02 11:11:34;;;;;;;4.70;1.17;;;16.20;99.90;;;;;;4947063;29;20055;-35
2022/06/02 11:14:36;;;;;;;5.15;0.88;;;16.20;99.90;;;;;;4947926;28;20525;-35
2022/06/02 11:17:08;;;;;;;10.57;1.38;;;16.10;99.90;;;;;;4932609;28;20118;-35
2022/06/02 11:19:36;;;;;;;2.13;1.38;;;16.10;99.90;;;;;;4963083;28;20047;-35
2022/06/02 11:22:33;;;;;;;3.58;1.30;;;16.20;99.90;;;;;;4962855;28;20046;-35
2022/06/02 11:25:19;;;;;;;3.95;1.10;;;16.20;99.90;;;;;;4954341;28;20317;-35
2022/06/02 11:27:47;;;;;;;1.65;0.90;;;16.30;99.90;;;;;;4949955;28;20094;-35
2022/06/02 11:30:29;;;;;;;2.20;1.13;;;16.30;99.90;;;;;;4964014;28;20135;-35
2022/06/02 11:33:31;;;;;;;2.92;1.00;;;16.30;99.90;;;;;;4966474;28;20047;-35
2022/06/02 11:36:20;;;;;;;4.75;1.42;;;16.40;99.90;;;;;;4967581;28;20046;-35
2022/06/02 11:39:04;;;;;;;2.63;1.13;;;16.50;99.90;;;;;;4954826;28;20062;-35
2022/06/02 11:41:44;;;;;;;2.03;1.08;;;16.50;99.90;;;;;;4965073;28;20034;-35
2022/06/02 11:44:14;;;;;;;3.45;1.05;;;16.60;99.90;;;;;;4962785;28;20506;-35
2022/06/02 11:47:14;;;;;;;2.70;1.15;;;16.60;99.90;;;;;;4954320;28;20043;-35
2022/06/02 11:49:55;;;;;;;2.63;1.13;;;16.60;99.90;;;;;;4967355;28;20059;-35
2022/06/02 11:52:43;;;;;;;3.50;1.15;;;16.70;99.90;;;;;;4964798;28;20050;-35
2022/06/02 11:55:28;;;;;;;2.72;1.15;;;16.70;99.90;;;;;;4964225;28;20059;-35
2022/06/02 11:58:13;;;;;;;3.70;0.80;;;16.80;99.90;;;;;;4926540;28;20058;-35
2022/06/02 12:01:02;;;;;;;4.20;1.00;;;16.90;99.90;;;;;;4947342;28;20055;-35
2022/06/02 12:03:46;;;;;;;2.13;1.05;;;17.00;99.90;;;;;;4944215;28;20055;-35
2022/06/02 12:06:27;;;;;;;3.00;0.93;;;17.20;99.90;;;;;;4936746;28;20141;-35
2022/06/02 12:09:12;;;;;;;3.90;1.17;;;17.20;99.90;;;;;;4942381;28;20043;-35
2022/06/02 12:11:43;;;;;;;4.88;1.13;;;17.30;99.90;;;;;;4944125;28;20414;-35
2022/06/02 12:14:43;;;;;;;1.88;1.10;;;17.30;99.90;;;;;;4944400;28;20074;-35
2022/06/02 12:17:15;;;;;;;2.28;0.90;;;17.40;99.90;;;;;;4927605;28;20537;-35
2022/06/02 12:20:18;;;;;;;1.30;0.95;;;17.50;99.90;;;;;;4945433;28;20051;-35
2022/06/02 12:23:06;;;;;;;1.92;0.90;;;17.60;99.90;;;;;;4943755;28;20101;-35
2022/06/02 12:26:03;;;;;;;2.53;1.30;;;17.60;99.90;;;;;;4928283;28;20105;-35
2022/06/02 12:28:49;;;;;;;1.50;0.77;;;17.70;99.90;;;;;;4930569;28;20090;-35
2022/06/02 12:31:36;;;;;;;2.05;0.70;;;17.80;99.90;;;;;;4944514;28;20043;-35
2022/06/02 12:34:46;;;;;;;1.17;0.80;;;17.80;99.90;;;;;;4946794;28;21608;-35
2022/06/02 12:37:30;;;;;;;1.50;0.80;;;17.80;99.90;;;;;;4928443;28;20058;-35
2022/06/02 12:40:17;;;;;;;1.48;0.70;;;17.90;99.90;;;;;;4945610;28;20043;-35
2022/06/02 12:42:52;;;;;;;2.33;0.90;;;18.00;99.90;;;;;;4945496;28;20046;-35
2022/06/02 12:45:39;;;;;;;3.38;0.95;;;18.00;99.90;;;;;;4946354;28;20178;-36
2022/06/02 12:48:23;;;;;;;2.90;0.80;;;18.20;99.90;;;;;;4929137;28;20145;-35
2022/06/02 12:51:07;;;;;;;2.67;0.90;;;18.40;99.90;;;;;;4944587;28;20086;-35
2022/06/02 12:53:44;;;;;;;2.90;0.77;;;18.40;99.90;;;;;;4944853;28;20447;-35
2022/06/02 12:56:38;;;;;;;3.38;0.88;;;18.50;99.90;;;;;;4936644;28;20157;-35
2022/06/02 12:59:16;;;;;;;2.13;0.60;;;18.60;99.90;;;;;;4942379;28;20063;-35
2022/06/02 13:01:53;;;;;;;1.30;0.52;;;18.90;99.90;;;;;;4942857;28;20059;-35
2022/06/02 13:04:41;;;;;;;2.15;0.70;;;18.80;99.90;;;;;;4942773;28;21965;-35
2022/06/02 13:07:31;;;;;;;1.65;0.77;;;18.80;99.90;;;;;;4929294;28;20054;-36
2022/06/02 13:10:00;;;;;;;3.58;0.70;;;18.80;99.90;;;;;;4945243;28;20076;-35
2022/06/02 13:12:47;;;;;;;2.40;1.10;;;18.90;99.90;;;;;;4942232;28;20078;-35
2022/06/02 13:15:32;;;;;;;2.47;1.10;;;19.00;99.90;;;;;;4945888;28;21161;-35
2022/06/02 13:18:10;;;;;;;3.55;1.30;;;19.10;99.90;;;;;;4928929;28;20050;-35
2022/06/02 13:21:13;;;;;;;1.73;1.08;;;19.20;99.90;;;;;;4946259;28;20059;-36
2022/06/02 13:24:16;;;;;;;5.50;1.20;;;19.30;99.90;;;;;;4945221;28;20141;-35
2022/06/02 13:26:54;;;;;;;3.95;1.15;;;19.40;99.90;;;;;;4930298;28;20046;-35
2022/06/02 13:29:19;;;;;;;1.98;0.90;;;19.40;99.90;;;;;;4945079;28;20158;-36
2022/06/02 13:32:38;;;;;;;3.35;1.08;;;19.50;99.90;;;;;;4943824;28;20065;-36
2022/06/02 13:35:39;;;;;;;3.80;1.20;;;19.60;99.90;;;;;;4914048;29;20064;-36
2022/06/02 13:38:19;;;;;;;2.55;1.30;;;19.70;99.90;;;;;;4885265;28;20063;-36
2022/06/02 13:41:12;;;;;;;3.60;1.17;;;19.80;99.90;;;;;;4926610;28;20051;-36
2022/06/02 13:44:01;;;;;;;3.13;1.08;;;19.90;99.90;;;;;;4926446;28;20058;-36
2022/06/02 13:46:45;;;;;;;2.35;1.00;;;19.90;99.90;;;;;;4901668;28;20614;-36
2022/06/02 13:49:40;;;;;;;3.45;0.98;;;19.90;99.90;;;;;;4926444;28;20526;-36
2022/06/02 13:52:28;;;;;;;1.60;0.70;;;19.90;99.90;;;;;;4924604;28;20051;-36
2022/06/02 13:58:16;;;;;;;4.07;0.80;;;20.00;99.90;;;;;;4908871;28;20174;-36
2022/06/02 14:01:06;;;;;;;4.18;1.00;;;20.10;99.90;;;;;;4930540;28;20089;-36
2022/06/02 14:03:50;;;;;;;3.47;1.00;;;19.90;99.90;;;;;;4925136;28;20146;-36
2022/06/02 14:06:25;;;;;;;3.75;0.80;;;20.20;99.90;;;;;;4916259;29;20125;-36
2022/06/02 14:09:15;;;;;;;1.65;1.00;;;20.20;99.90;;;;;;4925155;28;20133;-36
2022/06/02 14:12:22;;;;;;;3.72;1.00;;;20.10;99.90;;;;;;4927824;28;20106;-36
2022/06/02 14:14:48;;;;;;;3.70;0.80;;;20.10;99.90;;;;;;4927908;28;20153;-36
2022/06/02 14:17:38;;;;;;;1.67;0.85;;;20.10;99.90;;;;;;4913645;28;20142;-36
2022/06/02 14:20:41;;;;;;;2.97;0.82;;;20.10;99.90;;;;;;4947124;28;20604;-36
2022/06/02 14:23:25;;;;;;;2.65;0.80;;;20.20;99.90;;;;;;4943969;28;20758;-36
2022/06/02 14:26:09;;;;;;;2.38;0.70;;;20.20;99.90;;;;;;4948106;28;20138;-36
2022/06/02 14:28:53;;;;;;;3.92;0.80;;;20.20;99.90;;;;;;4921984;28;20062;-36
2022/06/02 14:31:41;;;;;;;2.35;0.77;;;20.30;99.90;;;;;;4946496;28;20062;-36
2022/06/02 14:34:43;;;;;;;1.30;0.73;;;20.20;99.90;;;;;;4948174;28;21054;-36